sensor_id;sensor_type;location;lat;lon;timestamp;P1;durP1;ratioP1;P2;durP2;ratioP2
20884;SDS011;10602;48.000;9.654;2024-01-30T00:00:48;10.60;;;7.20;;
20884;SDS011;10602;48.000;9.654;2024-01-30T00:03:18;8.50;;;6.93;;
20884;SDS011;10602;48.000;9.654;2024-01-30T00:05:47;10.03;;;7.07;;
20884;SDS011;10602;48.000;9.654;2024-01-30T00:08:15;12.10;;;7.87;;
20884;SDS011;10602;48.000;9.654;2024-01-30T00:10:43;9.33;;;7.47;;
20884;SDS011;10602;48.000;9.654;2024-01-30T00:13:11;11.57;;;7.63;;
20884;SDS011;10602;48.000;9.654;2024-01-30T00:15:39;10.83;;;7.80;;
20884;SDS011;10602;48.000;9.654;2024-01-30T00:18:07;11.27;;;8.47;;
20884;SDS011;10602;48.000;9.654;2024-01-30T00:20:34;12.13;;;8.43;;
20884;SDS011;10602;48.000;9.654;2024-01-30T00:23:02;11.90;;;8.37;;
20884;SDS011;10602;48.000;9.654;2024-01-30T00:25:30;14.90;;;7.83;;
20884;SDS011;10602;48.000;9.654;2024-01-30T00:28:01;13.03;;;8.53;;
20884;SDS011;10602;48.000;9.654;2024-01-30T00:30:31;13.27;;;8.57;;
20884;SDS011;10602;48.000;9.654;2024-01-30T00:32:59;13.17;;;8.20;;
20884;SDS011;10602;48.000;9.654;2024-01-30T00:35:28;10.97;;;7.50;;
20884;SDS011;10602;48.000;9.654;2024-01-30T00:37:57;12.63;;;8.93;;
20884;SDS011;10602;48.000;9.654;2024-01-30T00:40:25;12.43;;;8.57;;
20884;SDS011;10602;48.000;9.654;2024-01-30T00:42:52;15.77;;;8.70;;
20884;SDS011;10602;48.000;9.654;2024-01-30T00:45:20;11.77;;;7.17;;
20884;SDS011;10602;48.000;9.654;2024-01-30T00:47:47;9.23;;;7.07;;
20884;SDS011;10602;48.000;9.654;2024-01-30T00:50:15;10.60;;;8.03;;
20884;SDS011;10602;48.000;9.654;2024-01-30T00:52:42;10.37;;;7.13;;
20884;SDS011;10602;48.000;9.654;2024-01-30T00:55:10;12.33;;;8.20;;
20884;SDS011;10602;48.000;9.654;2024-01-30T00:57:38;12.33;;;8.57;;
20884;SDS011;10602;48.000;9.654;2024-01-30T01:00:06;11.27;;;7.73;;
20884;SDS011;10602;48.000;9.654;2024-01-30T01:02:35;11.63;;;8.40;;
20884;SDS011;10602;48.000;9.654;2024-01-30T01:05:03;11.03;;;7.53;;
20884;SDS011;10602;48.000;9.654;2024-01-30T01:07:30;11.43;;;7.60;;
20884;SDS011;10602;48.000;9.654;2024-01-30T01:09:58;10.73;;;7.53;;
20884;SDS011;10602;48.000;9.654;2024-01-30T01:12:25;12.83;;;8.30;;
20884;SDS011;10602;48.000;9.654;2024-01-30T01:14:53;11.30;;;8.37;;
20884;SDS011;10602;48.000;9.654;2024-01-30T01:17:20;11.77;;;7.67;;
20884;SDS011;10602;48.000;9.654;2024-01-30T01:19:48;10.50;;;7.00;;
20884;SDS011;10602;48.000;9.654;2024-01-30T01:22:18;11.07;;;7.00;;
20884;SDS011;10602;48.000;9.654;2024-01-30T01:24:46;11.70;;;7.60;;
20884;SDS011;10602;48.000;9.654;2024-01-30T01:27:23;10.67;;;7.57;;
20884;SDS011;10602;48.000;9.654;2024-01-30T01:29:54;10.27;;;7.40;;
20884;SDS011;10602;48.000;9.654;2024-01-30T01:41:13;9.67;;;6.93;;
20884;SDS011;10602;48.000;9.654;2024-01-30T01:43:41;9.33;;;7.07;;
20884;SDS011;10602;48.000;9.654;2024-01-30T01:46:08;11.73;;;8.37;;
20884;SDS011;10602;48.000;9.654;2024-01-30T01:48:36;10.50;;;7.77;;
20884;SDS011;10602;48.000;9.654;2024-01-30T01:51:05;12.17;;;7.90;;
20884;SDS011;10602;48.000;9.654;2024-01-30T01:53:34;10.73;;;7.53;;
20884;SDS011;10602;48.000;9.654;2024-01-30T01:56:01;11.37;;;7.23;;
20884;SDS011;10602;48.000;9.654;2024-01-30T01:58:32;10.90;;;7.20;;
20884;SDS011;10602;48.000;9.654;2024-01-30T02:00:58;9.73;;;7.30;;
20884;SDS011;10602;48.000;9.654;2024-01-30T02:03:26;12.47;;;7.57;;
20884;SDS011;10602;48.000;9.654;2024-01-30T02:05:54;10.03;;;7.03;;
20884;SDS011;10602;48.000;9.654;2024-01-30T02:08:23;10.80;;;7.57;;
20884;SDS011;10602;48.000;9.654;2024-01-30T02:10:50;10.23;;;7.47;;
20884;SDS011;10602;48.000;9.654;2024-01-30T02:13:19;10.53;;;7.47;;
20884;SDS011;10602;48.000;9.654;2024-01-30T02:15:48;10.93;;;7.67;;
20884;SDS011;10602;48.000;9.654;2024-01-30T02:18:20;9.80;;;7.27;;
20884;SDS011;10602;48.000;9.654;2024-01-30T02:20:47;10.63;;;7.97;;
20884;SDS011;10602;48.000;9.654;2024-01-30T02:23:20;11.43;;;7.07;;
20884;SDS011;10602;48.000;9.654;2024-01-30T02:25:49;10.77;;;7.50;;
20884;SDS011;10602;48.000;9.654;2024-01-30T02:28:19;10.77;;;7.03;;
20884;SDS011;10602;48.000;9.654;2024-01-30T02:30:46;11.23;;;7.50;;
20884;SDS011;10602;48.000;9.654;2024-01-30T02:33:14;10.40;;;7.73;;
20884;SDS011;10602;48.000;9.654;2024-01-30T02:35:41;9.23;;;7.20;;
20884;SDS011;10602;48.000;9.654;2024-01-30T02:38:12;10.93;;;7.00;;
20884;SDS011;10602;48.000;9.654;2024-01-30T02:40:41;9.53;;;7.10;;
20884;SDS011;10602;48.000;9.654;2024-01-30T02:43:09;9.93;;;7.10;;
20884;SDS011;10602;48.000;9.654;2024-01-30T02:45:36;10.57;;;7.47;;
20884;SDS011;10602;48.000;9.654;2024-01-30T02:48:04;9.23;;;6.97;;
20884;SDS011;10602;48.000;9.654;2024-01-30T02:50:32;11.77;;;7.33;;
20884;SDS011;10602;48.000;9.654;2024-01-30T02:53:01;10.00;;;6.63;;
20884;SDS011;10602;48.000;9.654;2024-01-30T02:55:29;11.47;;;7.53;;
20884;SDS011;10602;48.000;9.654;2024-01-30T02:57:56;9.03;;;6.37;;
20884;SDS011;10602;48.000;9.654;2024-01-30T03:00:24;11.07;;;7.17;;
20884;SDS011;10602;48.000;9.654;2024-01-30T03:02:51;9.97;;;6.70;;
20884;SDS011;10602;48.000;9.654;2024-01-30T03:05:19;9.20;;;6.93;;
20884;SDS011;10602;48.000;9.654;2024-01-30T03:07:46;10.27;;;6.47;;
20884;SDS011;10602;48.000;9.654;2024-01-30T03:10:14;10.40;;;6.83;;
20884;SDS011;10602;48.000;9.654;2024-01-30T03:12:41;9.73;;;6.50;;
20884;SDS011;10602;48.000;9.654;2024-01-30T03:15:09;9.10;;;6.47;;
20884;SDS011;10602;48.000;9.654;2024-01-30T03:17:36;8.77;;;6.43;;
20884;SDS011;10602;48.000;9.654;2024-01-30T03:20:07;9.17;;;5.90;;
20884;SDS011;10602;48.000;9.654;2024-01-30T03:22:35;9.70;;;6.77;;
20884;SDS011;10602;48.000;9.654;2024-01-30T03:25:03;9.47;;;7.13;;
20884;SDS011;10602;48.000;9.654;2024-01-30T03:27:30;8.40;;;6.00;;
20884;SDS011;10602;48.000;9.654;2024-01-30T03:29:59;8.37;;;6.37;;
20884;SDS011;10602;48.000;9.654;2024-01-30T03:32:27;7.83;;;6.20;;
20884;SDS011;10602;48.000;9.654;2024-01-30T03:34:55;7.50;;;5.43;;
20884;SDS011;10602;48.000;9.654;2024-01-30T03:37:23;9.63;;;5.93;;
20884;SDS011;10602;48.000;9.654;2024-01-30T03:39:51;8.37;;;6.27;;
20884;SDS011;10602;48.000;9.654;2024-01-30T03:42:18;7.37;;;5.77;;
20884;SDS011;10602;48.000;9.654;2024-01-30T03:44:46;7.97;;;5.80;;
20884;SDS011;10602;48.000;9.654;2024-01-30T03:47:13;8.40;;;5.83;;
20884;SDS011;10602;48.000;9.654;2024-01-30T03:49:41;7.97;;;5.33;;
20884;SDS011;10602;48.000;9.654;2024-01-30T03:52:08;14.63;;;8.47;;
20884;SDS011;10602;48.000;9.654;2024-01-30T03:54:36;24.70;;;12.40;;
20884;SDS011;10602;48.000;9.654;2024-01-30T03:57:04;22.87;;;11.13;;
20884;SDS011;10602;48.000;9.654;2024-01-30T03:59:31;14.10;;;8.70;;
20884;SDS011;10602;48.000;9.654;2024-01-30T04:01:59;8.17;;;6.17;;
20884;SDS011;10602;48.000;9.654;2024-01-30T04:04:27;7.50;;;5.30;;
20884;SDS011;10602;48.000;9.654;2024-01-30T04:06:54;6.37;;;4.87;;
20884;SDS011;10602;48.000;9.654;2024-01-30T04:09:22;6.33;;;5.10;;
20884;SDS011;10602;48.000;9.654;2024-01-30T04:11:54;7.43;;;5.47;;
20884;SDS011;10602;48.000;9.654;2024-01-30T04:14:21;9.17;;;6.27;;
20884;SDS011;10602;48.000;9.654;2024-01-30T04:16:49;25.53;;;10.40;;
20884;SDS011;10602;48.000;9.654;2024-01-30T04:19:16;12.40;;;7.07;;
20884;SDS011;10602;48.000;9.654;2024-01-30T04:21:44;7.33;;;5.60;;
20884;SDS011;10602;48.000;9.654;2024-01-30T04:24:11;8.03;;;5.93;;
20884;SDS011;10602;48.000;9.654;2024-01-30T04:26:41;7.50;;;5.73;;
20884;SDS011;10602;48.000;9.654;2024-01-30T04:29:08;7.47;;;5.60;;
20884;SDS011;10602;48.000;9.654;2024-01-30T04:31:36;6.60;;;4.90;;
20884;SDS011;10602;48.000;9.654;2024-01-30T04:34:06;6.47;;;5.40;;
20884;SDS011;10602;48.000;9.654;2024-01-30T04:36:32;8.30;;;5.07;;
20884;SDS011;10602;48.000;9.654;2024-01-30T04:39:00;8.10;;;5.63;;
20884;SDS011;10602;48.000;9.654;2024-01-30T04:41:29;6.33;;;5.60;;
20884;SDS011;10602;48.000;9.654;2024-01-30T04:43:58;6.90;;;5.27;;
20884;SDS011;10602;48.000;9.654;2024-01-30T04:46:25;7.70;;;6.30;;
20884;SDS011;10602;48.000;9.654;2024-01-30T04:48:53;6.00;;;5.33;;
20884;SDS011;10602;48.000;9.654;2024-01-30T04:51:20;6.57;;;5.37;;
20884;SDS011;10602;48.000;9.654;2024-01-30T04:53:48;6.87;;;5.77;;
20884;SDS011;10602;48.000;9.654;2024-01-30T04:56:15;7.60;;;6.27;;
20884;SDS011;10602;48.000;9.654;2024-01-30T04:58:44;8.37;;;6.03;;
20884;SDS011;10602;48.000;9.654;2024-01-30T05:01:18;10.80;;;7.37;;
20884;SDS011;10602;48.000;9.654;2024-01-30T05:03:46;11.20;;;7.60;;
20884;SDS011;10602;48.000;9.654;2024-01-30T05:06:13;19.30;;;10.27;;
20884;SDS011;10602;48.000;9.654;2024-01-30T05:08:44;12.97;;;8.53;;
20884;SDS011;10602;48.000;9.654;2024-01-30T05:11:11;22.80;;;10.90;;
20884;SDS011;10602;48.000;9.654;2024-01-30T05:13:42;16.77;;;10.47;;
20884;SDS011;10602;48.000;9.654;2024-01-30T05:16:09;11.67;;;8.13;;
20884;SDS011;10602;48.000;9.654;2024-01-30T05:18:37;11.43;;;7.10;;
20884;SDS011;10602;48.000;9.654;2024-01-30T05:21:05;11.00;;;7.10;;
20884;SDS011;10602;48.000;9.654;2024-01-30T05:23:32;10.73;;;6.63;;
20884;SDS011;10602;48.000;9.654;2024-01-30T05:26:00;9.07;;;6.53;;
20884;SDS011;10602;48.000;9.654;2024-01-30T05:28:31;8.30;;;5.97;;
20884;SDS011;10602;48.000;9.654;2024-01-30T05:30:59;8.60;;;5.27;;
20884;SDS011;10602;48.000;9.654;2024-01-30T05:33:26;6.73;;;5.53;;
20884;SDS011;10602;48.000;9.654;2024-01-30T05:35:54;7.67;;;6.17;;
20884;SDS011;10602;48.000;9.654;2024-01-30T05:38:22;10.20;;;5.97;;
20884;SDS011;10602;48.000;9.654;2024-01-30T05:40:49;7.03;;;5.37;;
20884;SDS011;10602;48.000;9.654;2024-01-30T05:43:19;7.73;;;5.30;;
20884;SDS011;10602;48.000;9.654;2024-01-30T05:45:46;7.23;;;5.30;;
20884;SDS011;10602;48.000;9.654;2024-01-30T05:48:13;6.73;;;5.10;;
20884;SDS011;10602;48.000;9.654;2024-01-30T05:50:41;7.40;;;5.90;;
20884;SDS011;10602;48.000;9.654;2024-01-30T05:53:08;6.10;;;5.13;;
20884;SDS011;10602;48.000;9.654;2024-01-30T05:55:36;7.60;;;5.20;;
20884;SDS011;10602;48.000;9.654;2024-01-30T05:58:03;6.80;;;5.17;;
20884;SDS011;10602;48.000;9.654;2024-01-30T06:00:31;8.70;;;5.97;;
20884;SDS011;10602;48.000;9.654;2024-01-30T06:02:58;6.80;;;5.23;;
20884;SDS011;10602;48.000;9.654;2024-01-30T06:05:26;5.70;;;4.67;;
20884;SDS011;10602;48.000;9.654;2024-01-30T06:07:53;7.13;;;4.83;;
20884;SDS011;10602;48.000;9.654;2024-01-30T06:10:21;8.87;;;6.03;;
20884;SDS011;10602;48.000;9.654;2024-01-30T06:12:48;5.97;;;5.33;;
20884;SDS011;10602;48.000;9.654;2024-01-30T06:15:16;12.37;;;8.13;;
20884;SDS011;10602;48.000;9.654;2024-01-30T06:17:45;9.87;;;7.80;;
20884;SDS011;10602;48.000;9.654;2024-01-30T06:20:13;6.77;;;5.37;;
20884;SDS011;10602;48.000;9.654;2024-01-30T06:22:40;15.77;;;12.27;;
20884;SDS011;10602;48.000;9.654;2024-01-30T06:25:08;8.97;;;7.30;;
20884;SDS011;10602;48.000;9.654;2024-01-30T06:27:36;9.27;;;6.80;;
20884;SDS011;10602;48.000;9.654;2024-01-30T06:30:04;11.90;;;8.30;;
20884;SDS011;10602;48.000;9.654;2024-01-30T06:32:32;11.70;;;7.97;;
20884;SDS011;10602;48.000;9.654;2024-01-30T06:35:00;8.30;;;6.53;;
20884;SDS011;10602;48.000;9.654;2024-01-30T06:37:33;6.90;;;5.93;;
20884;SDS011;10602;48.000;9.654;2024-01-30T06:39:57;9.00;;;6.63;;
20884;SDS011;10602;48.000;9.654;2024-01-30T06:42:24;7.60;;;6.80;;
20884;SDS011;10602;48.000;9.654;2024-01-30T06:44:52;8.07;;;6.23;;
20884;SDS011;10602;48.000;9.654;2024-01-30T06:47:20;7.50;;;5.87;;
20884;SDS011;10602;48.000;9.654;2024-01-30T06:49:47;6.00;;;4.87;;
20884;SDS011;10602;48.000;9.654;2024-01-30T06:52:14;6.30;;;5.33;;
20884;SDS011;10602;48.000;9.654;2024-01-30T06:54:43;7.00;;;6.13;;
20884;SDS011;10602;48.000;9.654;2024-01-30T06:57:11;5.83;;;4.90;;
20884;SDS011;10602;48.000;9.654;2024-01-30T06:59:40;7.73;;;4.80;;
20884;SDS011;10602;48.000;9.654;2024-01-30T07:02:10;6.33;;;4.83;;
20884;SDS011;10602;48.000;9.654;2024-01-30T07:04:37;5.93;;;4.83;;
20884;SDS011;10602;48.000;9.654;2024-01-30T07:07:08;9.07;;;6.03;;
20884;SDS011;10602;48.000;9.654;2024-01-30T07:09:37;7.30;;;6.20;;
20884;SDS011;10602;48.000;9.654;2024-01-30T07:12:05;8.67;;;6.53;;
20884;SDS011;10602;48.000;9.654;2024-01-30T07:14:33;10.20;;;8.00;;
20884;SDS011;10602;48.000;9.654;2024-01-30T07:17:01;12.27;;;9.43;;
20884;SDS011;10602;48.000;9.654;2024-01-30T07:19:29;9.00;;;7.77;;
20884;SDS011;10602;48.000;9.654;2024-01-30T07:21:56;9.40;;;7.70;;
20884;SDS011;10602;48.000;9.654;2024-01-30T07:24:24;6.20;;;5.43;;
20884;SDS011;10602;48.000;9.654;2024-01-30T07:26:52;6.10;;;4.87;;
20884;SDS011;10602;48.000;9.654;2024-01-30T07:29:19;7.90;;;5.33;;
20884;SDS011;10602;48.000;9.654;2024-01-30T07:31:48;11.03;;;7.30;;
20884;SDS011;10602;48.000;9.654;2024-01-30T07:34:15;12.40;;;7.80;;
20884;SDS011;10602;48.000;9.654;2024-01-30T07:36:43;7.93;;;6.67;;
20884;SDS011;10602;48.000;9.654;2024-01-30T07:39:11;6.87;;;5.47;;
20884;SDS011;10602;48.000;9.654;2024-01-30T07:41:44;7.57;;;5.90;;
20884;SDS011;10602;48.000;9.654;2024-01-30T07:44:08;6.13;;;5.53;;
20884;SDS011;10602;48.000;9.654;2024-01-30T07:46:35;9.03;;;6.03;;
20884;SDS011;10602;48.000;9.654;2024-01-30T07:49:03;6.80;;;5.90;;
20884;SDS011;10602;48.000;9.654;2024-01-30T07:51:30;6.90;;;6.20;;
20884;SDS011;10602;48.000;9.654;2024-01-30T07:53:58;7.30;;;6.20;;
20884;SDS011;10602;48.000;9.654;2024-01-30T07:56:26;6.53;;;5.83;;
20884;SDS011;10602;48.000;9.654;2024-01-30T07:58:53;6.97;;;6.27;;
20884;SDS011;10602;48.000;9.654;2024-01-30T08:01:21;7.73;;;6.57;;
20884;SDS011;10602;48.000;9.654;2024-01-30T08:03:49;6.33;;;5.73;;
20884;SDS011;10602;48.000;9.654;2024-01-30T08:06:16;7.23;;;6.53;;
20884;SDS011;10602;48.000;9.654;2024-01-30T08:08:44;6.37;;;5.77;;
20884;SDS011;10602;48.000;9.654;2024-01-30T08:11:12;7.30;;;6.53;;
20884;SDS011;10602;48.000;9.654;2024-01-30T08:13:42;11.03;;;7.73;;
20884;SDS011;10602;48.000;9.654;2024-01-30T08:16:09;7.10;;;5.97;;
20884;SDS011;10602;48.000;9.654;2024-01-30T08:18:37;6.57;;;5.97;;
20884;SDS011;10602;48.000;9.654;2024-01-30T08:21:04;8.47;;;7.07;;
20884;SDS011;10602;48.000;9.654;2024-01-30T08:23:32;11.77;;;6.97;;
20884;SDS011;10602;48.000;9.654;2024-01-30T08:25:59;6.60;;;5.93;;
20884;SDS011;10602;48.000;9.654;2024-01-30T08:28:27;6.47;;;5.87;;
20884;SDS011;10602;48.000;9.654;2024-01-30T08:30:54;6.13;;;5.63;;
20884;SDS011;10602;48.000;9.654;2024-01-30T08:33:22;6.93;;;6.27;;
20884;SDS011;10602;48.000;9.654;2024-01-30T08:35:49;6.50;;;5.90;;
20884;SDS011;10602;48.000;9.654;2024-01-30T08:38:20;6.60;;;5.83;;
20884;SDS011;10602;48.000;9.654;2024-01-30T08:40:48;6.97;;;6.27;;
20884;SDS011;10602;48.000;9.654;2024-01-30T08:43:16;6.33;;;5.73;;
20884;SDS011;10602;48.000;9.654;2024-01-30T08:45:46;6.47;;;5.87;;
20884;SDS011;10602;48.000;9.654;2024-01-30T08:48:13;6.20;;;5.60;;
20884;SDS011;10602;48.000;9.654;2024-01-30T08:50:41;6.50;;;5.90;;
20884;SDS011;10602;48.000;9.654;2024-01-30T08:53:08;6.67;;;6.07;;
20884;SDS011;10602;48.000;9.654;2024-01-30T08:55:36;6.43;;;5.83;;
20884;SDS011;10602;48.000;9.654;2024-01-30T08:58:04;6.87;;;5.93;;
20884;SDS011;10602;48.000;9.654;2024-01-30T09:00:32;7.50;;;5.83;;
20884;SDS011;10602;48.000;9.654;2024-01-30T09:02:59;6.93;;;6.30;;
20884;SDS011;10602;48.000;9.654;2024-01-30T09:05:27;7.03;;;6.17;;
20884;SDS011;10602;48.000;9.654;2024-01-30T09:07:55;7.13;;;6.20;;
20884;SDS011;10602;48.000;9.654;2024-01-30T09:10:22;7.43;;;6.40;;
20884;SDS011;10602;48.000;9.654;2024-01-30T09:12:50;6.70;;;5.80;;
20884;SDS011;10602;48.000;9.654;2024-01-30T09:15:17;6.47;;;5.87;;
20884;SDS011;10602;48.000;9.654;2024-01-30T09:17:45;24.10;;;18.00;;
20884;SDS011;10602;48.000;9.654;2024-01-30T09:20:12;69.27;;;39.47;;
20884;SDS011;10602;48.000;9.654;2024-01-30T09:22:40;79.93;;;43.43;;
20884;SDS011;10602;48.000;9.654;2024-01-30T09:25:07;16.57;;;12.03;;
20884;SDS011;10602;48.000;9.654;2024-01-30T09:27:35;8.53;;;7.70;;
20884;SDS011;10602;48.000;9.654;2024-01-30T09:30:03;7.40;;;6.70;;
20884;SDS011;10602;48.000;9.654;2024-01-30T09:32:31;6.60;;;5.90;;
20884;SDS011;10602;48.000;9.654;2024-01-30T09:34:58;7.17;;;6.47;;
20884;SDS011;10602;48.000;9.654;2024-01-30T09:37:26;7.17;;;6.23;;
20884;SDS011;10602;48.000;9.654;2024-01-30T09:39:53;7.10;;;6.10;;
20884;SDS011;10602;48.000;9.654;2024-01-30T09:42:25;6.37;;;5.77;;
20884;SDS011;10602;48.000;9.654;2024-01-30T09:45:02;6.60;;;5.90;;
20884;SDS011;10602;48.000;9.654;2024-01-30T09:47:32;6.17;;;5.60;;
20884;SDS011;10602;48.000;9.654;2024-01-30T09:50:01;6.73;;;5.37;;
20884;SDS011;10602;48.000;9.654;2024-01-30T09:52:29;5.60;;;5.10;;
20884;SDS011;10602;48.000;9.654;2024-01-30T09:54:56;6.60;;;5.80;;
20884;SDS011;10602;48.000;9.654;2024-01-30T09:57:27;5.37;;;4.87;;
20884;SDS011;10602;48.000;9.654;2024-01-30T09:59:54;5.67;;;5.07;;
20884;SDS011;10602;48.000;9.654;2024-01-30T10:02:23;6.07;;;5.47;;
20884;SDS011;10602;48.000;9.654;2024-01-30T10:04:51;5.70;;;5.20;;
20884;SDS011;10602;48.000;9.654;2024-01-30T10:07:19;5.97;;;5.47;;
20884;SDS011;10602;48.000;9.654;2024-01-30T10:09:46;6.17;;;5.57;;
20884;SDS011;10602;48.000;9.654;2024-01-30T10:12:15;6.67;;;5.97;;
20884;SDS011;10602;48.000;9.654;2024-01-30T10:14:43;10.50;;;9.40;;
20884;SDS011;10602;48.000;9.654;2024-01-30T10:17:11;7.70;;;7.00;;
20884;SDS011;10602;48.000;9.654;2024-01-30T10:19:39;7.00;;;6.40;;
20884;SDS011;10602;48.000;9.654;2024-01-30T10:22:07;7.47;;;5.80;;
20884;SDS011;10602;48.000;9.654;2024-01-30T10:24:36;6.90;;;5.87;;
20884;SDS011;10602;48.000;9.654;2024-01-30T10:27:05;6.07;;;5.53;;
20884;SDS011;10602;48.000;9.654;2024-01-30T10:29:32;6.50;;;5.27;;
20884;SDS011;10602;48.000;9.654;2024-01-30T10:32:00;5.40;;;4.97;;
20884;SDS011;10602;48.000;9.654;2024-01-30T10:34:29;7.13;;;6.40;;
20884;SDS011;10602;48.000;9.654;2024-01-30T10:37:04;7.53;;;6.70;;
20884;SDS011;10602;48.000;9.654;2024-01-30T10:39:34;8.00;;;7.20;;
20884;SDS011;10602;48.000;9.654;2024-01-30T10:42:04;6.43;;;5.83;;
20884;SDS011;10602;48.000;9.654;2024-01-30T10:44:36;7.10;;;6.47;;
20884;SDS011;10602;48.000;9.654;2024-01-30T10:47:06;7.10;;;6.40;;
20884;SDS011;10602;48.000;9.654;2024-01-30T10:49:36;7.10;;;6.20;;
20884;SDS011;10602;48.000;9.654;2024-01-30T10:52:05;18.80;;;10.90;;
20884;SDS011;10602;48.000;9.654;2024-01-30T10:54:34;6.83;;;6.10;;
20884;SDS011;10602;48.000;9.654;2024-01-30T10:57:02;6.67;;;5.97;;
20884;SDS011;10602;48.000;9.654;2024-01-30T10:59:31;7.30;;;6.60;;
20884;SDS011;10602;48.000;9.654;2024-01-30T11:01:59;7.00;;;6.30;;
20884;SDS011;10602;48.000;9.654;2024-01-30T11:04:35;6.27;;;5.67;;
20884;SDS011;10602;48.000;9.654;2024-01-30T11:07:23;6.63;;;5.93;;
20884;SDS011;10602;48.000;9.654;2024-01-30T11:09:53;7.50;;;6.10;;
20884;SDS011;10602;48.000;9.654;2024-01-30T11:12:22;7.17;;;6.03;;
20884;SDS011;10602;48.000;9.654;2024-01-30T11:15:03;7.60;;;6.20;;
20884;SDS011;10602;48.000;9.654;2024-01-30T11:17:41;6.53;;;5.93;;
20884;SDS011;10602;48.000;9.654;2024-01-30T11:20:10;6.67;;;6.07;;
20884;SDS011;10602;48.000;9.654;2024-01-30T11:22:40;6.67;;;6.07;;
20884;SDS011;10602;48.000;9.654;2024-01-30T11:25:10;7.13;;;5.70;;
20884;SDS011;10602;48.000;9.654;2024-01-30T11:27:38;8.77;;;6.23;;
20884;SDS011;10602;48.000;9.654;2024-01-30T11:30:06;6.20;;;5.70;;
20884;SDS011;10602;48.000;9.654;2024-01-30T11:32:34;8.67;;;7.57;;
20884;SDS011;10602;48.000;9.654;2024-01-30T11:35:05;7.47;;;6.67;;
20884;SDS011;10602;48.000;9.654;2024-01-30T11:37:35;7.87;;;7.07;;
20884;SDS011;10602;48.000;9.654;2024-01-30T11:40:07;7.53;;;6.33;;
20884;SDS011;10602;48.000;9.654;2024-01-30T11:42:36;7.83;;;6.70;;
20884;SDS011;10602;48.000;9.654;2024-01-30T11:45:05;7.93;;;7.03;;
20884;SDS011;10602;48.000;9.654;2024-01-30T11:47:34;10.33;;;8.07;;
20884;SDS011;10602;48.000;9.654;2024-01-30T11:50:04;13.77;;;10.73;;
20884;SDS011;10602;48.000;9.654;2024-01-30T11:52:35;10.23;;;8.27;;
20884;SDS011;10602;48.000;9.654;2024-01-30T11:55:02;8.13;;;6.83;;
20884;SDS011;10602;48.000;9.654;2024-01-30T11:57:30;10.10;;;7.30;;
20884;SDS011;10602;48.000;9.654;2024-01-30T11:59:58;17.53;;;12.57;;
20884;SDS011;10602;48.000;9.654;2024-01-30T12:02:25;13.33;;;9.33;;
20884;SDS011;10602;48.000;9.654;2024-01-30T12:04:53;9.87;;;8.67;;
20884;SDS011;10602;48.000;9.654;2024-01-30T12:07:21;9.07;;;7.47;;
20884;SDS011;10602;48.000;9.654;2024-01-30T12:09:54;10.50;;;7.03;;
20884;SDS011;10602;48.000;9.654;2024-01-30T12:12:27;10.90;;;8.00;;
20884;SDS011;10602;48.000;9.654;2024-01-30T12:14:52;8.47;;;7.53;;
20884;SDS011;10602;48.000;9.654;2024-01-30T12:17:38;7.63;;;6.83;;
20884;SDS011;10602;48.000;9.654;2024-01-30T12:20:05;8.47;;;7.57;;
20884;SDS011;10602;48.000;9.654;2024-01-30T12:22:45;14.33;;;10.63;;
20884;SDS011;10602;48.000;9.654;2024-01-30T12:25:14;8.50;;;7.60;;
20884;SDS011;10602;48.000;9.654;2024-01-30T12:27:43;8.57;;;7.77;;
20884;SDS011;10602;48.000;9.654;2024-01-30T12:30:12;8.07;;;7.13;;
20884;SDS011;10602;48.000;9.654;2024-01-30T12:32:41;8.07;;;7.27;;
20884;SDS011;10602;48.000;9.654;2024-01-30T12:35:10;8.13;;;7.23;;
20884;SDS011;10602;48.000;9.654;2024-01-30T12:37:39;7.60;;;6.80;;
20884;SDS011;10602;48.000;9.654;2024-01-30T12:40:07;8.83;;;7.93;;
20884;SDS011;10602;48.000;9.654;2024-01-30T12:42:35;8.80;;;7.30;;
20884;SDS011;10602;48.000;9.654;2024-01-30T12:45:03;8.03;;;7.23;;
20884;SDS011;10602;48.000;9.654;2024-01-30T12:47:31;8.97;;;7.63;;
20884;SDS011;10602;48.000;9.654;2024-01-30T12:49:59;9.70;;;7.53;;
20884;SDS011;10602;48.000;9.654;2024-01-30T12:52:26;9.70;;;8.33;;
20884;SDS011;10602;48.000;9.654;2024-01-30T12:54:54;8.63;;;7.73;;
20884;SDS011;10602;48.000;9.654;2024-01-30T12:57:21;8.93;;;8.03;;
20884;SDS011;10602;48.000;9.654;2024-01-30T12:59:49;9.70;;;8.23;;
20884;SDS011;10602;48.000;9.654;2024-01-30T13:02:17;9.57;;;8.07;;
20884;SDS011;10602;48.000;9.654;2024-01-30T13:04:44;13.00;;;10.77;;
20884;SDS011;10602;48.000;9.654;2024-01-30T13:07:12;14.87;;;10.20;;
20884;SDS011;10602;48.000;9.654;2024-01-30T13:09:39;9.80;;;8.80;;
20884;SDS011;10602;48.000;9.654;2024-01-30T13:12:07;11.97;;;9.00;;
20884;SDS011;10602;48.000;9.654;2024-01-30T13:14:34;9.80;;;8.80;;
20884;SDS011;10602;48.000;9.654;2024-01-30T13:17:02;10.73;;;8.73;;
20884;SDS011;10602;48.000;9.654;2024-01-30T13:19:29;10.03;;;8.40;;
20884;SDS011;10602;48.000;9.654;2024-01-30T13:21:57;9.07;;;8.13;;
20884;SDS011;10602;48.000;9.654;2024-01-30T13:24:24;9.67;;;8.67;;
20884;SDS011;10602;48.000;9.654;2024-01-30T13:26:52;9.30;;;8.10;;
20884;SDS011;10602;48.000;9.654;2024-01-30T13:29:20;9.60;;;8.60;;
20884;SDS011;10602;48.000;9.654;2024-01-30T13:31:47;9.23;;;8.10;;
20884;SDS011;10602;48.000;9.654;2024-01-30T13:34:15;10.60;;;8.10;;
20884;SDS011;10602;48.000;9.654;2024-01-30T13:36:42;9.90;;;8.10;;
20884;SDS011;10602;48.000;9.654;2024-01-30T13:39:10;9.53;;;8.23;;
20884;SDS011;10602;48.000;9.654;2024-01-30T13:41:38;9.77;;;7.97;;
20884;SDS011;10602;48.000;9.654;2024-01-30T13:44:05;9.03;;;7.83;;
20884;SDS011;10602;48.000;9.654;2024-01-30T13:46:33;8.77;;;7.90;;
20884;SDS011;10602;48.000;9.654;2024-01-30T13:49:01;9.13;;;8.17;;
20884;SDS011;10602;48.000;9.654;2024-01-30T13:51:29;11.87;;;7.50;;
20884;SDS011;10602;48.000;9.654;2024-01-30T13:53:56;12.00;;;9.00;;
20884;SDS011;10602;48.000;9.654;2024-01-30T13:56:24;9.37;;;8.20;;
20884;SDS011;10602;48.000;9.654;2024-01-30T13:58:52;9.23;;;8.23;;
20884;SDS011;10602;48.000;9.654;2024-01-30T14:01:21;8.63;;;7.73;;
20884;SDS011;10602;48.000;9.654;2024-01-30T14:03:49;10.53;;;8.30;;
20884;SDS011;10602;48.000;9.654;2024-01-30T14:06:17;10.13;;;7.80;;
20884;SDS011;10602;48.000;9.654;2024-01-30T14:08:45;9.00;;;7.77;;
20884;SDS011;10602;48.000;9.654;2024-01-30T14:11:12;11.03;;;8.20;;
20884;SDS011;10602;48.000;9.654;2024-01-30T14:13:40;8.73;;;7.83;;
20884;SDS011;10602;48.000;9.654;2024-01-30T14:16:08;8.60;;;7.70;;
20884;SDS011;10602;48.000;9.654;2024-01-30T14:18:35;9.60;;;8.30;;
20884;SDS011;10602;48.000;9.654;2024-01-30T14:21:03;8.60;;;7.70;;
20884;SDS011;10602;48.000;9.654;2024-01-30T14:23:32;9.40;;;7.80;;
20884;SDS011;10602;48.000;9.654;2024-01-30T14:26:00;9.57;;;7.53;;
20884;SDS011;10602;48.000;9.654;2024-01-30T14:28:27;9.90;;;8.13;;
20884;SDS011;10602;48.000;9.654;2024-01-30T14:30:55;9.43;;;7.87;;
20884;SDS011;10602;48.000;9.654;2024-01-30T14:33:23;10.17;;;8.07;;
20884;SDS011;10602;48.000;9.654;2024-01-30T14:35:50;9.30;;;8.23;;
20884;SDS011;10602;48.000;9.654;2024-01-30T14:38:18;9.20;;;8.17;;
20884;SDS011;10602;48.000;9.654;2024-01-30T14:40:45;9.43;;;7.70;;
20884;SDS011;10602;48.000;9.654;2024-01-30T14:43:13;11.47;;;7.90;;
20884;SDS011;10602;48.000;9.654;2024-01-30T14:45:40;9.80;;;8.13;;
20884;SDS011;10602;48.000;9.654;2024-01-30T14:48:08;9.00;;;8.10;;
20884;SDS011;10602;48.000;9.654;2024-01-30T14:50:36;8.77;;;7.60;;
20884;SDS011;10602;48.000;9.654;2024-01-30T14:53:03;8.20;;;7.40;;
20884;SDS011;10602;48.000;9.654;2024-01-30T14:55:31;9.43;;;7.77;;
20884;SDS011;10602;48.000;9.654;2024-01-30T14:57:59;9.17;;;7.63;;